Station: Cleve

  Atmospheric Gas Attenuation - ITU Rec 676-11   --------------- db/100km ---------------
Date Time Temp RH % AH g/m3 Dew Point Wind Direction Speed kph Gust kph Barometer mB Rainfall Since 9am 24GHz 47GHz 76GHz 122GHz 134GHz 241GHz
27 09:00 12.3 62 6.73 5.2 7 1026.6 0 15.7 23.8 33.7 88.0 76.9 262.7
26 09:00 9.4 74 6.69 5 4 1024 0.4 15.7 24.5 34.7 90.6 79.1 270.0
25 09:00 8 79 6.53 4.6 15 1015.5 9 15.4 24.3 34.3 89.6 77.8 265.5
24 09:00 11 78 7.81 7.3 11 1013.1 2 18.0 25.4 38.0 99.6 91.3 313.4
23 09:00 12.2 72 7.77 7.3 11 1013.1 0 17.9 25.0 37.2 97.6 89.4 306.8
22 09:00 12.7 73 8.13 8.1 26 1014.6 0.8 18.6 25.5 38.5 101.0 93.7 321.8
21 09:00 15 39 5 1.1 33 1005.5 0 11.9 19.9 25.7 66.9 52.8 178.8
20 09:00 18.5 58 9.18 10.2 33 1003.8 0.2 20.6 25.1 39.3 103.4 99.1 341.8
19 09:00 14.4 88 10.88 12.4 15 1007.9 5 24.5 29.3 48.7 128.3 128.2 442.9
18 09:00 24.5 33 7.39 7.3 37 1015.3 0 16.6 21.4 30.8 80.6 72.5 249.1
17 09:00 15.2 76 9.86 11.1 15 1017 0 22.2 27.7 44.4 116.6 113.7 392.1
16 09:00 18.4 31 4.88 1 15 1017.3 0 11.5 19.4 24.7 64.0 49.9 168.9
15 09:00 13 77 8.73 9 4 1029.7 0 19.9 27.0 41.5 108.7 102.5 352.7
14 09:00 12.4 83 9.07 9.7 4 1031.6 0.2 20.6 27.8 43.3 113.5 108.2 372.3
13 09:00 12 71 7.57 7 7 1027.4 4 17.5 25.3 37.2 97.2 88.1 302.0
12 09:00 15.9 76 10.29 11.7 7 1021.1 0 23.1 28.3 45.9 120.8 118.9 410.3
11 09:00 1013.1
10 09:00 18 51 7.83 7.8 15 1020.6 0 17.8 23.8 35.2 92.1 84.3 289.6
09 09:00 12.8 79 8.85 9.3 11 1027.6 0 20.2 27.2 42.0 110.1 104.3 358.7
08 09:00 14.1 77 9.35 10.1 4 1025 0 21.2 27.5 43.2 113.5 109.1 375.7
07 09:00 20.5 20 3.56 -3.4 41 1014.2 0 8.7 17.3 19.9 51.3 35.1 116.8
06 09:00 17.2 42 6.15 4.4 22 1019.6 0 14.2 21.5 29.4 76.7 65.1 221.9
05 09:00 13.5 82 9.59 10.6 4 1021.7 0 21.7 27.9 44.4 116.6 112.9 389.2
04 09:00 13.5 77 9.01 9.6 26 1019.7 0 20.5 26.9 41.9 110.0 104.8 360.8
03 09:00 14 65 7.84 7.6 19 1014.9 0 18.0 24.7 36.8 96.3 88.4 303.5
02 09:00 15 58 7.44 6.9 26 1008.8 0 17.1 23.6 34.5 90.5 81.8 280.6
31 09:00 10.5 69 6.69 5 0 1028.9 0.2 15.6 24.3 34.4 89.8 78.3 267.4
30 09:00 11 87 8.71 9 15 1022 1 20.0 27.3 42.1 110.4 104.3 358.7
29 09:00 16.9 37 5.32 2.1 26 1022.1 0 12.5 20.5 26.7 69.5 56.0 189.9
28 09:00 11.2 92 9.33 10 4 1029.4 0 21.3 28.5 45.0 118.0 113.4 390.3
27 09:00 15.8 40 5.38 2.5 7 1027 0 12.7 21.0 27.5 71.4 57.7 195.7
26 09:00 13.7 44 5.21 1.8 7 1028.2 0 12.4 21.3 27.6 71.7 57.3 194.0
25 09:00 11.8 59 6.21 4 4 1030.2 0 14.6 23.3 32.1 83.5 71.0 242.0
24 09:00 9.1 83 7.37 6.3 4 1024.9 0.6 17.2 25.7 37.6 98.4 88.5 303.1
23 09:00 6.8 87 6.66 4.8 11 1022.9 0.2 15.7 25.1 35.7 93.2 81.3 277.4
22 09:00 7.9 80 6.57 4.7 11 1020.7 1 15.5 24.5 34.7 90.7 78.8 268.8
21 09:00 10 87 8.18 7.9 11 1012.4 1 18.9 26.3 40.0 104.9 97.5 334.8
20 09:00 9.5 89 8.1 7.8 22 1012.7 3 18.7 26.3 39.9 104.7 97.1 333.2
19 09:00 10 87 8.18 8 11 1010.1 5 18.9 26.2 39.9 104.6 97.3 334.2
18 09:00 11.7 74 7.74 7.2 19 1003.9 0 17.9 24.8 37.0 97.0 88.9 305.0
17 09:00 14.5 48 5.97 3.7 33 1005.6 0 14.0 21.4 29.2 76.3 64.3 219.2
16 09:00 9 93 8.2 8 4 1019.7 3 19.0 26.9 40.9 107.2 99.7 342.2
15 09:00 11 91 9.11 9.6 7 1017.8 3 20.8 27.8 43.6 114.5 109.5 376.9
14 09:00 11.4 95 9.75 10.6 11 1011.5 5 22.2 28.5 45.8 120.5 117.4 404.6
13 09:00 12.2 93 10.04 11.1 11 1010.5 2 22.8 28.7 46.5 122.5 120.2 414.4
12 09:00 12.9 84 9.47 10.2 30 1006.6 5 21.5 27.3 43.5 114.5 110.8 381.7
11 09:00 11 83 8.31 8.2 37 1007.1 2 19.1 26.0 39.7 104.4 97.6 335.3
10 09:00 10.4 76 7.33 6.4 7 1019 0.2 17.0 25.0 36.6 95.7 86.1 294.8
09 09:00 8.4 88 7.47 6.5 7 1019.4 5 17.4 25.8 38.1 99.8 90.3 309.3
08 09:00 7.9 99 8.14 7.7 4 1013.2 12 18.9 26.9 40.9 107.4 99.7 342.3
07 09:00 8 82 6.78 5.1 11 1014.7 2 15.9 24.6 35.3 92.3 81.0 276.9
06 09:00 7.8 36 2.94 -6.3 11 1017.3 0 7.8 19.0 21.1 54.3 34.0 111.3
05 09:00 7.2 74 5.81 2.9 15 1019.1 0 13.9 23.5 31.9 83.2 69.3 235.6
04 09:00 9.6 75 6.87 5.5 19 1020.1 0 16.1 24.5 35.1 91.9 81.0 276.7
03 09:00 10.7 96 9.43 10.1 0 1020.4 0 21.5 28.5 45.3 118.9 114.7 395.1
02 09:00 12 88 9.38 10.1 0 1022.8 0 21.3 28.1 44.4 116.6 112.3 386.8
31 09:00 12.1 63 6.76 5.4 15 1026.1 0.1 15.7 23.9 33.9 88.5 77.4 264.6
30 09:00 8.7 97 8.39 8.3 0 1029.6 0.4 19.4 27.7 42.3 110.9 103.6 355.7
29 09:00 12.4 69 7.54 7 7 1022.5 0 17.4 24.9 36.7 95.9 86.9 297.9
28 09:00 7 94 7.29 6.1 4 1023 0.4 17.1 26.1 38.2 100.0 89.7 307.0
27 09:00 9.4 97 8.78 9 0 1025.3 0.2 20.2 28.0 43.4 113.9 107.8 370.6
26 09:00 7.1 99 7.72 6.9 0 1024.3 0.4 18.0 26.8 40.0 104.8 95.7 328.0
24 09:00 11 41 4.1 -1.7 26 1018.5 0 10.1 20.0 24.3 62.8 45.6 152.9
22 09:00 8.8 76 6.62 4.8 11 1030.6 0 15.6 24.8 34.9 91.1 79.2 270.3
21 09:00 6.8 97 7.42 6.4 0 1032.1 0.6 17.4 26.7 39.3 102.6 92.5 316.5
20 09:00 8 85 7.03 5.6 0 1028 0.6 16.5 25.6 36.9 96.3 85.4 291.9
19 09:00 10.5 93 9.02 9.5 19 1017.6 1 20.7 27.8 43.5 114.2 108.9 374.9
18 09:00 14 34 4.1 -1.7 30 1011.7 0 10.0 19.1 23.2 60.0 43.7 146.6
17 09:00 13.9 42 5.04 1.2 7 1020.9 0 12.0 20.7 26.7 69.4 54.8 185.4
16 09:00 11.9 89 9.43 10.2 0 1025.2 0 21.4 28.3 44.8 117.6 113.4 390.5
14 09:00 11.1 68 6.85 5.5 7 1027.8 0.2 16.0 24.4 34.7 90.7 79.7 272.4
13 09:00 10.9 95 9.45 10.1 0 1028.3 0.4 21.5 28.8 45.6 119.8 115.4 397.5
12 09:00 8 91 7.53 6.7 4 1022.5 8 17.6 26.2 38.7 101.3 91.8 314.5
11 09:00 1013.1
10 09:00 11.5 64 6.61 5 11 1021 0 15.4 23.7 33.4 87.1 75.7 258.7
09 09:00 10 50 4.7 0.2 22 1022.8 0 11.4 21.2 26.8 69.6 53.5 180.4
08 09:00 6.6 77 5.82 2.8 7 1027 0 13.9 23.9 32.5 84.7 70.5 239.5
07 09:00 7.8 84 6.86 5.3 4 1031.5 0.2 16.1 25.5 36.4 95.0 83.5 285.4
06 09:00 9.6 83 7.61 6.8 7 1033.2 0.2 17.7 26.3 38.7 101.2 91.8 314.7
05 09:00 9.8 92 8.54 8.6 0 1032.6 0.2 19.6 27.8 42.5 111.4 104.5 358.9
04 09:00 8.5 99 8.46 8.3 0 1032.9 0.4 19.5 28.0 42.9 112.4 105.1 361.1
03 09:00 10 95 8.93 9.2 19 1026.2 1 20.5 28.1 43.8 114.9 109.1 375.4
02 09:00 8.9 81 7.1 5.9 19 1019 3 16.6 25.1 36.3 95.1 84.7 289.7
01 09:00 17 39 5.64 3 15 1010.5 0 13.2 20.5 27.4 71.4 58.9 200.3
30 09:00 9.9 45 4.2 -1.3 1014.3 0.6 10.4 20.2 24.8 64.3 47.3 158.5
29 09:00 7.5 60 4.8 0.2 0 1023.5 0 11.7 22.0 28.1 72.9 56.5 190.5
28 09:00 10.1 50 4.73 0.3 0 1027.8 0 11.5 21.4 27.1 70.2 54.0 182.2
27 09:00 10 56 5.26 1.7 7 1026.8 0 12.6 22.2 29.0 75.5 60.5 204.9
26 09:00 10 87 8.18 7.9 11 1026.9 0.4 18.9 26.9 40.6 106.4 98.7 338.8
25 09:00 12 99 10.55 11.8 11 1022.9 0 23.9 30.2 49.5 130.3 129.1 445.3
24 09:00 8.2 84 7.04 5.6 11 1020.9 0 16.5 25.2 36.5 95.5 84.8 289.9
23 09:00 10 84 7.9 7.5 4 1023.3 0.2 18.3 26.2 39.3 102.9 94.5 324.4
22 09:00 10.2 91 8.66 8.8 11 1021.6 0.2 19.9 27.4 42.3 111.0 104.7 359.8
21 09:00 9.9 93 8.69 8.9 15 1017.4 3 20.0 27.4 42.4 111.3 105.1 361.4
20 09:00 10.5 92 8.92 9.3 22 1018 6 20.4 27.6 43.1 113.1 107.6 370.1
19 09:00 14.6 33 4.13 -1.5 22 1022.7 0 10.1 19.4 23.5 60.6 44.2 148.1
18 09:00 13 55 6.24 4.3 30 1026.1 0 14.6 22.9 31.6 82.2 70.1 238.9
17 09:00 8.8 95 8.27 8 0 1031.9 0.2 19.1 27.6 41.9 109.6 101.9 349.9
16 09:00 12.8 91 10.19 11.3 11 1026.9 0.8 23.0 29.4 47.6 125.2 122.9 424.0
15 09:00 12.5 83 9.13 9.8 15 1023.9 0 20.8 27.6 43.1 113.2 108.2 372.5

Last Refresh: 27-Sep-2020 14:08:45

Most of the information presented on this site is sourced from the Bureau of Meteorology.  Copyright in all material sourced from the Bureau of Meteorology resides with the Commonwealth of Australia.